sensor_id;sensor_type;location;lat;lon;timestamp;temperature;humidity
36556;DHT22;40859;50.560;7.268;2023-03-14T03:45:46;22.10;78.20
36556;DHT22;40859;50.560;7.268;2023-03-14T03:48:12;22.10;77.40
36556;DHT22;40859;50.560;7.268;2023-03-14T03:50:43;22.10;76.90
36556;DHT22;40859;50.560;7.268;2023-03-14T03:53:09;22.10;77.20
36556;DHT22;40859;50.560;7.268;2023-03-14T03:55:34;22.00;77.00
36556;DHT22;40859;50.560;7.268;2023-03-14T03:58:00;22.00;76.90
36556;DHT22;40859;50.560;7.268;2023-03-14T04:00:26;22.00;77.10
36556;DHT22;40859;50.560;7.268;2023-03-14T04:02:51;22.00;76.30
36556;DHT22;40859;50.560;7.268;2023-03-14T04:05:17;22.00;76.20
36556;DHT22;40859;50.560;7.268;2023-03-14T04:07:43;22.00;77.30
36556;DHT22;40859;50.560;7.268;2023-03-14T04:10:10;22.00;77.80
36556;DHT22;40859;50.560;7.268;2023-03-14T04:12:36;22.00;77.60
36556;DHT22;40859;50.560;7.268;2023-03-14T04:15:02;22.00;77.50
36556;DHT22;40859;50.560;7.268;2023-03-14T04:17:28;22.00;77.60
36556;DHT22;40859;50.560;7.268;2023-03-14T04:19:54;22.00;77.80
36556;DHT22;40859;50.560;7.268;2023-03-14T04:22:19;22.00;77.50
36556;DHT22;40859;50.560;7.268;2023-03-14T04:24:45;22.00;77.50
36556;DHT22;40859;50.560;7.268;2023-03-14T04:27:11;22.00;77.60
36556;DHT22;40859;50.560;7.268;2023-03-14T04:29:36;22.00;77.50
36556;DHT22;40859;50.560;7.268;2023-03-14T04:32:02;22.00;77.50
36556;DHT22;40859;50.560;7.268;2023-03-14T04:34:27;22.00;76.90
36556;DHT22;40859;50.560;7.268;2023-03-14T04:36:54;22.00;76.80
36556;DHT22;40859;50.560;7.268;2023-03-14T04:39:20;22.00;77.60
36556;DHT22;40859;50.560;7.268;2023-03-14T04:41:46;22.00;77.50
36556;DHT22;40859;50.560;7.268;2023-03-14T04:44:11;22.00;77.30
36556;DHT22;40859;50.560;7.268;2023-03-14T04:46:37;21.90;77.40
36556;DHT22;40859;50.560;7.268;2023-03-14T04:49:02;22.00;76.70
36556;DHT22;40859;50.560;7.268;2023-03-14T04:51:28;22.00;76.70
36556;DHT22;40859;50.560;7.268;2023-03-14T04:53:54;21.90;77.30
36556;DHT22;40859;50.560;7.268;2023-03-14T04:56:20;21.90;76.60
36556;DHT22;40859;50.560;7.268;2023-03-14T04:58:45;22.00;78.10
36556;DHT22;40859;50.560;7.268;2023-03-14T05:01:12;21.90;77.00
36556;DHT22;40859;50.560;7.268;2023-03-14T05:03:37;21.90;76.60
36556;DHT22;40859;50.560;7.268;2023-03-14T05:06:03;21.90;77.20
36556;DHT22;40859;50.560;7.268;2023-03-14T05:08:29;21.90;77.10
36556;DHT22;40859;50.560;7.268;2023-03-14T05:10:56;22.00;77.20
36556;DHT22;40859;50.560;7.268;2023-03-14T05:13:22;21.90;77.80
36556;DHT22;40859;50.560;7.268;2023-03-14T05:15:47;21.90;77.00
36556;DHT22;40859;50.560;7.268;2023-03-14T05:18:13;21.90;77.00
36556;DHT22;40859;50.560;7.268;2023-03-14T05:20:39;21.90;77.20
36556;DHT22;40859;50.560;7.268;2023-03-14T05:23:05;21.90;77.00
36556;DHT22;40859;50.560;7.268;2023-03-14T05:25:30;21.90;77.10
36556;DHT22;40859;50.560;7.268;2023-03-14T05:27:56;21.90;77.10
36556;DHT22;40859;50.560;7.268;2023-03-14T05:30:22;21.90;78.10
36556;DHT22;40859;50.560;7.268;2023-03-14T05:32:48;21.90;77.00
36556;DHT22;40859;50.560;7.268;2023-03-14T05:35:13;21.90;77.00
36556;DHT22;40859;50.560;7.268;2023-03-14T05:37:39;22.00;77.00
36556;DHT22;40859;50.560;7.268;2023-03-14T05:40:05;21.90;77.00
36556;DHT22;40859;50.560;7.268;2023-03-14T05:42:32;21.90;77.00
36556;DHT22;40859;50.560;7.268;2023-03-14T05:44:58;22.00;77.10
36556;DHT22;40859;50.560;7.268;2023-03-14T05:47:24;22.00;77.10
36556;DHT22;40859;50.560;7.268;2023-03-14T05:49:50;22.00;77.10
36556;DHT22;40859;50.560;7.268;2023-03-14T05:52:16;22.00;77.00
36556;DHT22;40859;50.560;7.268;2023-03-14T05:54:42;22.00;77.00
36556;DHT22;40859;50.560;7.268;2023-03-14T05:57:07;21.90;77.00
36556;DHT22;40859;50.560;7.268;2023-03-14T05:59:33;22.00;76.40
36556;DHT22;40859;50.560;7.268;2023-03-14T06:01:59;22.00;76.50
36556;DHT22;40859;50.560;7.268;2023-03-14T06:04:25;21.90;77.10
36556;DHT22;40859;50.560;7.268;2023-03-14T06:06:50;22.00;77.20
36556;DHT22;40859;50.560;7.268;2023-03-14T06:09:16;22.00;77.90
36556;DHT22;40859;50.560;7.268;2023-03-14T06:11:45;22.00;76.90
36556;DHT22;40859;50.560;7.268;2023-03-14T06:14:11;21.90;76.90
36556;DHT22;40859;50.560;7.268;2023-03-14T06:16:37;21.90;76.60
36556;DHT22;40859;50.560;7.268;2023-03-14T06:19:03;21.90;77.00
36556;DHT22;40859;50.560;7.268;2023-03-14T06:21:28;21.90;77.10
36556;DHT22;40859;50.560;7.268;2023-03-14T06:23:54;22.00;77.20
36556;DHT22;40859;50.560;7.268;2023-03-14T06:26:19;22.00;78.00
36556;DHT22;40859;50.560;7.268;2023-03-14T06:28:45;21.90;77.60
36556;DHT22;40859;50.560;7.268;2023-03-14T06:31:11;22.00;77.20
36556;DHT22;40859;50.560;7.268;2023-03-14T06:33:37;22.00;77.10
36556;DHT22;40859;50.560;7.268;2023-03-14T06:36:02;22.00;77.10
36556;DHT22;40859;50.560;7.268;2023-03-14T06:38:28;22.00;77.10
36556;DHT22;40859;50.560;7.268;2023-03-14T06:40:54;22.00;77.00
36556;DHT22;40859;50.560;7.268;2023-03-14T06:43:19;22.00;77.90
36556;DHT22;40859;50.560;7.268;2023-03-14T06:45:45;22.00;76.40
36556;DHT22;40859;50.560;7.268;2023-03-14T06:48:10;22.00;76.50
36556;DHT22;40859;50.560;7.268;2023-03-14T06:50:36;22.10;77.10
36556;DHT22;40859;50.560;7.268;2023-03-14T06:53:02;22.00;77.10
36556;DHT22;40859;50.560;7.268;2023-03-14T06:55:28;22.00;77.00
36556;DHT22;40859;50.560;7.268;2023-03-14T06:57:53;22.00;77.00
36556;DHT22;40859;50.560;7.268;2023-03-14T07:00:19;22.10;77.10
36556;DHT22;40859;50.560;7.268;2023-03-14T07:02:45;22.00;77.00
36556;DHT22;40859;50.560;7.268;2023-03-14T07:05:10;22.00;77.00
36556;DHT22;40859;50.560;7.268;2023-03-14T07:07:36;22.00;77.00
36556;DHT22;40859;50.560;7.268;2023-03-14T07:10:02;22.00;77.10
36556;DHT22;40859;50.560;7.268;2023-03-14T07:12:28;22.10;76.40
36556;DHT22;40859;50.560;7.268;2023-03-14T07:14:53;22.00;77.00
36556;DHT22;40859;50.560;7.268;2023-03-14T07:17:19;22.00;77.00
36556;DHT22;40859;50.560;7.268;2023-03-14T07:19:45;22.10;77.00
36556;DHT22;40859;50.560;7.268;2023-03-14T07:22:10;22.10;77.10
36556;DHT22;40859;50.560;7.268;2023-03-14T07:24:36;22.00;77.10
36556;DHT22;40859;50.560;7.268;2023-03-14T07:27:02;22.00;77.30
36556;DHT22;40859;50.560;7.268;2023-03-14T07:29:27;22.00;77.10
36556;DHT22;40859;50.560;7.268;2023-03-14T07:31:53;22.00;77.00
36556;DHT22;40859;50.560;7.268;2023-03-14T07:34:19;22.00;77.00
36556;DHT22;40859;50.560;7.268;2023-03-14T07:36:44;21.90;77.20
36556;DHT22;40859;50.560;7.268;2023-03-14T07:39:10;21.90;76.60
36556;DHT22;40859;50.560;7.268;2023-03-14T07:41:36;21.80;77.50
36556;DHT22;40859;50.560;7.268;2023-03-14T07:44:01;21.80;77.50
36556;DHT22;40859;50.560;7.268;2023-03-14T07:46:27;21.90;77.70
36556;DHT22;40859;50.560;7.268;2023-03-14T07:48:53;21.90;77.40
36556;DHT22;40859;50.560;7.268;2023-03-14T07:51:18;21.80;77.40
36556;DHT22;40859;50.560;7.268;2023-03-14T07:53:45;21.80;78.00
36556;DHT22;40859;50.560;7.268;2023-03-14T07:56:11;21.80;77.90
36556;DHT22;40859;50.560;7.268;2023-03-14T07:58:37;21.80;78.00
36556;DHT22;40859;50.560;7.268;2023-03-14T08:01:02;21.80;77.40
36556;DHT22;40859;50.560;7.268;2023-03-14T08:03:28;21.80;78.70
36556;DHT22;40859;50.560;7.268;2023-03-14T08:05:54;21.80;77.80
36556;DHT22;40859;50.560;7.268;2023-03-14T08:08:20;21.80;77.70
36556;DHT22;40859;50.560;7.268;2023-03-14T08:10:46;21.80;77.30
36556;DHT22;40859;50.560;7.268;2023-03-14T08:13:12;21.80;77.70
36556;DHT22;40859;50.560;7.268;2023-03-14T08:15:37;21.80;77.60
36556;DHT22;40859;50.560;7.268;2023-03-14T08:18:03;21.90;77.80
36556;DHT22;40859;50.560;7.268;2023-03-14T08:20:29;21.90;77.50
36556;DHT22;40859;50.560;7.268;2023-03-14T08:22:58;21.90;78.40
36556;DHT22;40859;50.560;7.268;2023-03-14T08:25:24;21.90;77.80
36556;DHT22;40859;50.560;7.268;2023-03-14T08:27:51;21.90;77.90
36556;DHT22;40859;50.560;7.268;2023-03-14T08:30:17;22.00;78.00
36556;DHT22;40859;50.560;7.268;2023-03-14T08:32:43;21.90;78.00
36556;DHT22;40859;50.560;7.268;2023-03-14T08:35:09;21.90;77.90
36556;DHT22;40859;50.560;7.268;2023-03-14T08:37:35;21.90;77.20
36556;DHT22;40859;50.560;7.268;2023-03-14T08:40:01;21.90;77.90
36556;DHT22;40859;50.560;7.268;2023-03-14T08:42:32;21.90;77.80
36556;DHT22;40859;50.560;7.268;2023-03-14T08:44:57;21.90;77.90
36556;DHT22;40859;50.560;7.268;2023-03-14T08:47:23;22.00;77.20
36556;DHT22;40859;50.560;7.268;2023-03-14T08:49:49;22.00;78.60
36556;DHT22;40859;50.560;7.268;2023-03-14T08:52:14;22.00;77.80
36556;DHT22;40859;50.560;7.268;2023-03-14T08:54:43;22.00;77.80
36556;DHT22;40859;50.560;7.268;2023-03-14T08:57:09;22.00;77.90
36556;DHT22;40859;50.560;7.268;2023-03-14T08:59:34;22.00;77.70
36556;DHT22;40859;50.560;7.268;2023-03-14T09:02:00;22.00;77.80
36556;DHT22;40859;50.560;7.268;2023-03-14T09:04:29;22.00;77.80
36556;DHT22;40859;50.560;7.268;2023-03-14T09:06:55;22.00;77.10
36556;DHT22;40859;50.560;7.268;2023-03-14T09:09:20;22.00;77.20
36556;DHT22;40859;50.560;7.268;2023-03-14T09:11:47;22.00;77.80
36556;DHT22;40859;50.560;7.268;2023-03-14T09:14:13;22.00;77.10
36556;DHT22;40859;50.560;7.268;2023-03-14T09:16:39;22.00;77.90
36556;DHT22;40859;50.560;7.268;2023-03-14T09:19:05;22.00;77.10
36556;DHT22;40859;50.560;7.268;2023-03-14T09:21:31;22.00;77.80
36556;DHT22;40859;50.560;7.268;2023-03-14T09:23:56;22.00;77.10
36556;DHT22;40859;50.560;7.268;2023-03-14T09:26:22;22.00;77.90
36556;DHT22;40859;50.560;7.268;2023-03-14T09:28:50;22.00;77.70
36556;DHT22;40859;50.560;7.268;2023-03-14T09:31:15;22.10;77.80
36556;DHT22;40859;50.560;7.268;2023-03-14T09:33:41;22.00;77.70
36556;DHT22;40859;50.560;7.268;2023-03-14T09:36:10;22.00;77.70
36556;DHT22;40859;50.560;7.268;2023-03-14T09:38:35;22.00;77.80
36556;DHT22;40859;50.560;7.268;2023-03-14T09:41:02;22.00;77.20
36556;DHT22;40859;50.560;7.268;2023-03-14T09:43:32;22.00;77.70
36556;DHT22;40859;50.560;7.268;2023-03-14T09:45:58;22.10;77.80
36556;DHT22;40859;50.560;7.268;2023-03-14T09:48:27;22.00;77.70
36556;DHT22;40859;50.560;7.268;2023-03-14T09:50:55;22.00;77.80
36556;DHT22;40859;50.560;7.268;2023-03-14T09:53:28;22.00;77.20
36556;DHT22;40859;50.560;7.268;2023-03-14T09:55:57;22.00;77.70
36556;DHT22;40859;50.560;7.268;2023-03-14T09:58:24;22.00;78.30
36556;DHT22;40859;50.560;7.268;2023-03-14T10:00:50;22.00;77.00
36556;DHT22;40859;50.560;7.268;2023-03-14T10:03:25;22.00;77.70
36556;DHT22;40859;50.560;7.268;2023-03-14T10:05:51;22.00;77.60
36556;DHT22;40859;50.560;7.268;2023-03-14T10:08:18;22.00;77.70
36556;DHT22;40859;50.560;7.268;2023-03-14T10:10:43;22.00;77.80
36556;DHT22;40859;50.560;7.268;2023-03-14T10:13:17;22.00;77.80
36556;DHT22;40859;50.560;7.268;2023-03-14T10:15:46;22.00;77.30
36556;DHT22;40859;50.560;7.268;2023-03-14T10:18:13;22.00;77.90
36556;DHT22;40859;50.560;7.268;2023-03-14T10:20:48;22.00;78.50
36556;DHT22;40859;50.560;7.268;2023-03-14T10:23:19;22.00;78.00
36556;DHT22;40859;50.560;7.268;2023-03-14T10:26:04;22.00;78.10
36556;DHT22;40859;50.560;7.268;2023-03-14T10:28:32;22.00;78.80
36556;DHT22;40859;50.560;7.268;2023-03-14T10:30:59;22.10;78.00
36556;DHT22;40859;50.560;7.268;2023-03-14T10:33:25;22.10;79.20
36556;DHT22;40859;50.560;7.268;2023-03-14T10:35:52;22.10;78.60
36556;DHT22;40859;50.560;7.268;2023-03-14T10:38:19;22.00;78.80
36556;DHT22;40859;50.560;7.268;2023-03-14T10:40:48;22.10;77.70
36556;DHT22;40859;50.560;7.268;2023-03-14T10:43:18;22.10;78.30
36556;DHT22;40859;50.560;7.268;2023-03-14T10:45:51;22.10;79.40
36556;DHT22;40859;50.560;7.268;2023-03-14T10:48:21;22.00;78.50
36556;DHT22;40859;50.560;7.268;2023-03-14T10:50:49;22.10;78.50
36556;DHT22;40859;50.560;7.268;2023-03-14T10:53:19;22.10;77.80
36556;DHT22;40859;50.560;7.268;2023-03-14T10:55:44;22.10;78.30
36556;DHT22;40859;50.560;7.268;2023-03-14T10:58:27;22.10;78.40
36556;DHT22;40859;50.560;7.268;2023-03-14T11:09:15;22.20;78.80
36556;DHT22;40859;50.560;7.268;2023-03-14T11:11:44;22.20;78.10
36556;DHT22;40859;50.560;7.268;2023-03-14T11:14:27;22.20;78.30
36556;DHT22;40859;50.560;7.268;2023-03-14T11:22:26;22.20;78.10
36556;DHT22;40859;50.560;7.268;2023-03-14T11:25:06;22.20;77.90
36556;DHT22;40859;50.560;7.268;2023-03-14T11:27:50;22.20;77.70
36556;DHT22;40859;50.560;7.268;2023-03-14T11:30:23;22.20;78.30
36556;DHT22;40859;50.560;7.268;2023-03-14T11:42:16;22.20;77.70
36556;DHT22;40859;50.560;7.268;2023-03-14T11:44:43;22.20;77.60
36556;DHT22;40859;50.560;7.268;2023-03-14T11:47:10;22.20;77.80
36556;DHT22;40859;50.560;7.268;2023-03-14T11:49:47;22.20;77.70
36556;DHT22;40859;50.560;7.268;2023-03-14T11:52:28;22.20;77.20
36556;DHT22;40859;50.560;7.268;2023-03-14T11:55:05;22.20;78.70
36556;DHT22;40859;50.560;7.268;2023-03-14T11:57:33;22.20;77.90
36556;DHT22;40859;50.560;7.268;2023-03-14T12:00:21;22.20;78.00
36556;DHT22;40859;50.560;7.268;2023-03-14T12:04:14;22.30;78.20
36556;DHT22;40859;50.560;7.268;2023-03-14T12:06:48;22.20;78.10
36556;DHT22;40859;50.560;7.268;2023-03-14T12:09:23;22.20;78.60
36556;DHT22;40859;50.560;7.268;2023-03-14T12:14:34;22.20;79.00
36556;DHT22;40859;50.560;7.268;2023-03-14T12:20:27;22.20;78.90
36556;DHT22;40859;50.560;7.268;2023-03-14T12:22:56;22.20;78.70
36556;DHT22;40859;50.560;7.268;2023-03-14T12:25:27;22.20;78.40
36556;DHT22;40859;50.560;7.268;2023-03-14T12:28:16;22.20;78.40
36556;DHT22;40859;50.560;7.268;2023-03-14T12:30:43;22.20;78.40
36556;DHT22;40859;50.560;7.268;2023-03-14T12:35:57;22.20;78.40
36556;DHT22;40859;50.560;7.268;2023-03-14T12:38:27;22.20;78.40
36556;DHT22;40859;50.560;7.268;2023-03-14T12:43:39;22.20;78.50
36556;DHT22;40859;50.560;7.268;2023-03-14T12:50:26;22.30;78.60
36556;DHT22;40859;50.560;7.268;2023-03-14T12:53:12;22.20;78.40
36556;DHT22;40859;50.560;7.268;2023-03-14T12:55:44;22.20;78.40
36556;DHT22;40859;50.560;7.268;2023-03-14T12:58:15;22.20;78.80
36556;DHT22;40859;50.560;7.268;2023-03-14T13:00:51;22.20;78.20
36556;DHT22;40859;50.560;7.268;2023-03-14T13:03:20;22.30;78.30
36556;DHT22;40859;50.560;7.268;2023-03-14T13:06:00;22.20;78.90
36556;DHT22;40859;50.560;7.268;2023-03-14T13:11:26;22.20;77.50
36556;DHT22;40859;50.560;7.268;2023-03-14T13:13:56;22.20;78.70
36556;DHT22;40859;50.560;7.268;2023-03-14T13:16:22;22.20;77.90
36556;DHT22;40859;50.560;7.268;2023-03-14T13:18:49;22.20;77.80
36556;DHT22;40859;50.560;7.268;2023-03-14T13:21:17;22.20;77.70
36556;DHT22;40859;50.560;7.268;2023-03-14T13:24:01;22.30;77.90
36556;DHT22;40859;50.560;7.268;2023-03-14T13:26:41;22.20;77.70
36556;DHT22;40859;50.560;7.268;2023-03-14T13:29:21;22.20;77.60
36556;DHT22;40859;50.560;7.268;2023-03-14T13:31:49;22.20;77.70
36556;DHT22;40859;50.560;7.268;2023-03-14T13:34:15;22.30;77.70
36556;DHT22;40859;50.560;7.268;2023-03-14T13:36:41;22.20;78.20
36556;DHT22;40859;50.560;7.268;2023-03-14T13:39:10;22.20;80.20
36556;DHT22;40859;50.560;7.268;2023-03-14T13:41:38;22.20;80.50
36556;DHT22;40859;50.560;7.268;2023-03-14T13:44:05;22.30;80.20
36556;DHT22;40859;50.560;7.268;2023-03-14T13:46:33;22.30;80.40
36556;DHT22;40859;50.560;7.268;2023-03-14T13:49:01;22.30;80.90
36556;DHT22;40859;50.560;7.268;2023-03-14T13:51:27;22.30;80.90
36556;DHT22;40859;50.560;7.268;2023-03-14T13:53:56;22.30;80.30
36556;DHT22;40859;50.560;7.268;2023-03-14T13:56:25;22.30;80.00
36556;DHT22;40859;50.560;7.268;2023-03-14T13:58:51;22.30;79.50
36556;DHT22;40859;50.560;7.268;2023-03-14T14:01:21;22.30;79.70
36556;DHT22;40859;50.560;7.268;2023-03-14T14:03:49;22.30;78.70
36556;DHT22;40859;50.560;7.268;2023-03-14T14:06:26;22.30;78.80
36556;DHT22;40859;50.560;7.268;2023-03-14T14:08:53;22.30;78.70
36556;DHT22;40859;50.560;7.268;2023-03-14T14:12:06;22.30;78.90
36556;DHT22;40859;50.560;7.268;2023-03-14T14:14:57;22.20;78.30
36556;DHT22;40859;50.560;7.268;2023-03-14T14:17:26;22.30;79.40
36556;DHT22;40859;50.560;7.268;2023-03-14T14:19:53;22.30;78.20
36556;DHT22;40859;50.560;7.268;2023-03-14T14:22:19;22.30;78.40
36556;DHT22;40859;50.560;7.268;2023-03-14T14:24:45;22.30;79.30
36556;DHT22;40859;50.560;7.268;2023-03-14T14:27:19;22.20;78.30
36556;DHT22;40859;50.560;7.268;2023-03-14T14:30:04;22.20;78.30
36556;DHT22;40859;50.560;7.268;2023-03-14T14:32:37;22.20;78.30
36556;DHT22;40859;50.560;7.268;2023-03-14T14:35:05;22.20;78.20
36556;DHT22;40859;50.560;7.268;2023-03-14T14:37:32;22.30;78.20
36556;DHT22;40859;50.560;7.268;2023-03-14T14:39:59;22.20;77.70
36556;DHT22;40859;50.560;7.268;2023-03-14T14:42:26;22.20;77.70
36556;DHT22;40859;50.560;7.268;2023-03-14T14:44:52;22.20;78.10
36556;DHT22;40859;50.560;7.268;2023-03-14T14:47:20;22.20;78.10
36556;DHT22;40859;50.560;7.268;2023-03-14T14:49:50;22.20;78.70
36556;DHT22;40859;50.560;7.268;2023-03-14T14:52:18;22.20;78.20
36556;DHT22;40859;50.560;7.268;2023-03-14T14:54:54;22.20;78.20
36556;DHT22;40859;50.560;7.268;2023-03-14T14:57:24;22.20;78.10
36556;DHT22;40859;50.560;7.268;2023-03-14T14:59:50;22.20;78.10
36556;DHT22;40859;50.560;7.268;2023-03-14T15:02:27;22.20;78.10
36556;DHT22;40859;50.560;7.268;2023-03-14T15:04:53;22.20;78.10
36556;DHT22;40859;50.560;7.268;2023-03-14T15:07:22;22.20;78.00
36556;DHT22;40859;50.560;7.268;2023-03-14T15:09:48;22.20;78.90
36556;DHT22;40859;50.560;7.268;2023-03-14T15:12:14;22.20;78.30
36556;DHT22;40859;50.560;7.268;2023-03-14T15:14:39;22.20;78.10
36556;DHT22;40859;50.560;7.268;2023-03-14T15:17:05;22.20;78.10
36556;DHT22;40859;50.560;7.268;2023-03-14T15:19:34;22.30;79.10
36556;DHT22;40859;50.560;7.268;2023-03-14T15:22:00;22.20;78.20
36556;DHT22;40859;50.560;7.268;2023-03-14T15:24:26;22.20;78.20
36556;DHT22;40859;50.560;7.268;2023-03-14T15:26:52;22.20;78.20
36556;DHT22;40859;50.560;7.268;2023-03-14T15:29:17;22.20;78.30
36556;DHT22;40859;50.560;7.268;2023-03-14T15:31:44;22.20;78.20
36556;DHT22;40859;50.560;7.268;2023-03-14T15:34:10;22.20;78.20
36556;DHT22;40859;50.560;7.268;2023-03-14T15:36:36;22.20;79.20
36556;DHT22;40859;50.560;7.268;2023-03-14T15:39:03;22.20;78.20
36556;DHT22;40859;50.560;7.268;2023-03-14T15:41:28;22.30;78.30
36556;DHT22;40859;50.560;7.268;2023-03-14T15:43:57;22.20;78.20
36556;DHT22;40859;50.560;7.268;2023-03-14T15:46:25;22.20;78.40
36556;DHT22;40859;50.560;7.268;2023-03-14T15:48:51;22.20;78.30
36556;DHT22;40859;50.560;7.268;2023-03-14T15:51:19;22.20;78.50
36556;DHT22;40859;50.560;7.268;2023-03-14T15:53:45;22.20;78.40
36556;DHT22;40859;50.560;7.268;2023-03-14T15:56:12;22.20;79.30
36556;DHT22;40859;50.560;7.268;2023-03-14T15:58:38;22.20;78.50
36556;DHT22;40859;50.560;7.268;2023-03-14T16:01:05;22.30;78.70
36556;DHT22;40859;50.560;7.268;2023-03-14T16:03:34;22.20;78.60
36556;DHT22;40859;50.560;7.268;2023-03-14T16:05:59;22.20;78.00
36556;DHT22;40859;50.560;7.268;2023-03-14T16:08:25;22.20;78.70
36556;DHT22;40859;50.560;7.268;2023-03-14T16:10:51;22.30;78.10
36556;DHT22;40859;50.560;7.268;2023-03-14T16:13:17;22.20;78.60
36556;DHT22;40859;50.560;7.268;2023-03-14T16:15:59;22.30;78.70
36556;DHT22;40859;50.560;7.268;2023-03-14T16:18:27;22.30;78.70
36556;DHT22;40859;50.560;7.268;2023-03-14T16:20:54;22.30;78.80
36556;DHT22;40859;50.560;7.268;2023-03-14T16:23:20;22.20;78.90
36556;DHT22;40859;50.560;7.268;2023-03-14T16:25:46;22.30;78.80
36556;DHT22;40859;50.560;7.268;2023-03-14T16:28:12;22.20;78.70
36556;DHT22;40859;50.560;7.268;2023-03-14T16:30:37;22.20;78.90
36556;DHT22;40859;50.560;7.268;2023-03-14T16:33:03;22.30;78.80
36556;DHT22;40859;50.560;7.268;2023-03-14T16:35:32;22.30;78.90
36556;DHT22;40859;50.560;7.268;2023-03-14T16:37:59;22.30;79.60
36556;DHT22;40859;50.560;7.268;2023-03-14T16:40:25;22.20;78.60
36556;DHT22;40859;50.560;7.268;2023-03-14T16:42:50;22.30;78.80
36556;DHT22;40859;50.560;7.268;2023-03-14T16:45:16;22.30;78.80
36556;DHT22;40859;50.560;7.268;2023-03-14T16:47:41;22.30;78.90
36556;DHT22;40859;50.560;7.268;2023-03-14T16:50:07;22.30;78.70
36556;DHT22;40859;50.560;7.268;2023-03-14T16:52:36;22.30;79.00
36556;DHT22;40859;50.560;7.268;2023-03-14T16:55:02;22.30;78.80
36556;DHT22;40859;50.560;7.268;2023-03-14T16:57:29;22.30;79.00
36556;DHT22;40859;50.560;7.268;2023-03-14T17:00:00;22.30;79.00
36556;DHT22;40859;50.560;7.268;2023-03-14T17:02:26;22.30;78.90
36556;DHT22;40859;50.560;7.268;2023-03-14T17:04:51;22.30;78.50
36556;DHT22;40859;50.560;7.268;2023-03-14T17:07:17;22.30;80.00
36556;DHT22;40859;50.560;7.268;2023-03-14T17:09:43;22.30;79.00
36556;DHT22;40859;50.560;7.268;2023-03-14T17:12:09;22.30;79.00
36556;DHT22;40859;50.560;7.268;2023-03-14T17:14:35;22.30;79.40
36556;DHT22;40859;50.560;7.268;2023-03-14T17:17:01;22.30;78.30
36556;DHT22;40859;50.560;7.268;2023-03-14T17:19:27;22.30;80.00
36556;DHT22;40859;50.560;7.268;2023-03-14T17:21:52;22.30;79.00
36556;DHT22;40859;50.560;7.268;2023-03-14T17:24:18;22.30;78.70
36556;DHT22;40859;50.560;7.268;2023-03-14T17:26:44;22.30;79.00
36556;DHT22;40859;50.560;7.268;2023-03-14T17:29:09;22.30;79.20
36556;DHT22;40859;50.560;7.268;2023-03-14T17:31:35;22.20;78.90
36556;DHT22;40859;50.560;7.268;2023-03-14T17:34:01;22.20;79.50
36556;DHT22;40859;50.560;7.268;2023-03-14T17:36:26;22.20;78.70
36556;DHT22;40859;50.560;7.268;2023-03-14T17:38:55;22.20;77.90
36556;DHT22;40859;50.560;7.268;2023-03-14T17:41:20;22.20;77.70
36556;DHT22;40859;50.560;7.268;2023-03-14T17:43:46;22.20;77.90
36556;DHT22;40859;50.560;7.268;2023-03-14T17:46:12;22.20;77.90
36556;DHT22;40859;50.560;7.268;2023-03-14T17:48:45;22.20;78.20
36556;DHT22;40859;50.560;7.268;2023-03-14T17:51:14;22.20;78.20
36556;DHT22;40859;50.560;7.268;2023-03-14T17:53:40;22.20;77.70
36556;DHT22;40859;50.560;7.268;2023-03-14T17:56:06;22.30;78.20
36556;DHT22;40859;50.560;7.268;2023-03-14T17:58:32;22.30;78.30
36556;DHT22;40859;50.560;7.268;2023-03-14T18:01:11;22.30;78.20
36556;DHT22;40859;50.560;7.268;2023-03-14T18:03:37;22.20;78.20
36556;DHT22;40859;50.560;7.268;2023-03-14T18:06:04;22.20;78.20
36556;DHT22;40859;50.560;7.268;2023-03-14T18:08:30;22.20;78.20
36556;DHT22;40859;50.560;7.268;2023-03-14T18:10:55;22.30;78.60
36556;DHT22;40859;50.560;7.268;2023-03-14T18:13:21;22.20;78.60
36556;DHT22;40859;50.560;7.268;2023-03-14T18:15:47;22.20;78.50
36556;DHT22;40859;50.560;7.268;2023-03-14T18:18:13;22.20;79.00
36556;DHT22;40859;50.560;7.268;2023-03-14T18:20:38;22.30;79.00
36556;DHT22;40859;50.560;7.268;2023-03-14T18:23:04;22.20;79.70
36556;DHT22;40859;50.560;7.268;2023-03-14T18:25:32;22.20;78.20
36556;DHT22;40859;50.560;7.268;2023-03-14T18:27:57;22.20;79.50
36556;DHT22;40859;50.560;7.268;2023-03-14T18:30:23;22.30;78.60
36556;DHT22;40859;50.560;7.268;2023-03-14T18:32:49;22.30;78.70
36556;DHT22;40859;50.560;7.268;2023-03-14T18:35:15;22.20;78.10
36556;DHT22;40859;50.560;7.268;2023-03-14T18:37:41;22.30;79.40
36556;DHT22;40859;50.560;7.268;2023-03-14T18:40:07;22.30;78.20
36556;DHT22;40859;50.560;7.268;2023-03-14T18:42:34;22.30;78.30
36556;DHT22;40859;50.560;7.268;2023-03-14T18:45:00;22.30;78.60
36556;DHT22;40859;50.560;7.268;2023-03-14T18:47:26;22.30;78.20
36556;DHT22;40859;50.560;7.268;2023-03-14T18:49:51;22.20;78.00
36556;DHT22;40859;50.560;7.268;2023-03-14T18:52:17;22.30;78.80
36556;DHT22;40859;50.560;7.268;2023-03-14T18:54:42;22.20;78.30
36556;DHT22;40859;50.560;7.268;2023-03-14T18:57:09;22.30;78.30
36556;DHT22;40859;50.560;7.268;2023-03-14T18:59:34;22.20;78.30
36556;DHT22;40859;50.560;7.268;2023-03-14T19:02:00;22.30;78.30
36556;DHT22;40859;50.560;7.268;2023-03-14T19:04:25;22.30;78.90
36556;DHT22;40859;50.560;7.268;2023-03-14T19:06:51;22.30;77.20
36556;DHT22;40859;50.560;7.268;2023-03-14T19:09:18;22.20;77.50
36556;DHT22;40859;50.560;7.268;2023-03-14T19:11:44;22.30;78.00
36556;DHT22;40859;50.560;7.268;2023-03-14T19:14:10;22.20;77.20
36556;DHT22;40859;50.560;7.268;2023-03-14T19:16:37;22.20;76.80
36556;DHT22;40859;50.560;7.268;2023-03-14T19:19:02;22.20;77.00
36556;DHT22;40859;50.560;7.268;2023-03-14T19:21:29;22.20;76.50
36556;DHT22;40859;50.560;7.268;2023-03-14T19:23:56;22.10;75.60
36556;DHT22;40859;50.560;7.268;2023-03-14T19:26:21;22.10;76.00
36556;DHT22;40859;50.560;7.268;2023-03-14T19:28:48;22.10;75.70
36556;DHT22;40859;50.560;7.268;2023-03-14T19:31:17;22.10;75.80
36556;DHT22;40859;50.560;7.268;2023-03-14T19:33:43;22.10;75.70
36556;DHT22;40859;50.560;7.268;2023-03-14T19:36:19;22.10;75.20
36556;DHT22;40859;50.560;7.268;2023-03-14T19:38:46;22.10;75.50
36556;DHT22;40859;50.560;7.268;2023-03-14T19:41:11;22.10;74.90
36556;DHT22;40859;50.560;7.268;2023-03-14T19:43:40;22.00;74.80
36556;DHT22;40859;50.560;7.268;2023-03-14T19:46:05;22.10;75.10
36556;DHT22;40859;50.560;7.268;2023-03-14T19:48:31;22.10;74.50
36556;DHT22;40859;50.560;7.268;2023-03-14T19:51:00;22.00;74.20
36556;DHT22;40859;50.560;7.268;2023-03-14T19:53:25;22.10;75.60
36556;DHT22;40859;50.560;7.268;2023-03-14T19:55:56;22.10;75.40
36556;DHT22;40859;50.560;7.268;2023-03-14T19:58:30;22.10;76.30
36556;DHT22;40859;50.560;7.268;2023-03-14T20:00:57;22.10;75.80